Time;durP1;ratioP1;P1;durP2;ratioP2;P2;SDS_P1;SDS_P2;PMS_P1;PMS_P2;Temp;Humidity;BMP_temperature;BMP_pressure;BME280_temperature;BME280_humidity;BME280_pressure;Samples;Min_cycle;Max_cycle;Signal;HPM_P1;HPM_P2
2022/10/27 04:30:31;;;;;;;8.63;3.10;;;16.80;81.80;;;;;;5916041;23;21190;-83
2022/10/27 04:32:57;;;;;;;6.60;2.75;;;16.80;81.90;;;;;;4963039;28;20094;-83
2022/10/27 04:35:22;;;;;;;8.30;2.67;;;16.80;81.80;;;;;;4958554;28;20035;-80
2022/10/27 04:37:48;;;;;;;7.45;3.15;;;16.90;81.70;;;;;;4975285;28;20106;-80
2022/10/27 04:40:14;;;;;;;5.60;2.88;;;16.90;81.60;;;;;;4956977;28;20035;-81
2022/10/27 04:42:46;;;;;;;9.05;2.95;;;16.90;81.70;;;;;;4956845;29;20035;-81
2022/10/27 04:45:13;;;;;;;6.70;3.08;;;16.90;81.60;;;;;;4939664;29;20034;-81
2022/10/27 04:47:38;;;;;;;7.63;2.78;;;16.80;81.80;;;;;;4956567;28;20031;-79
2022/10/27 04:50:04;;;;;;;6.47;2.80;;;16.90;81.90;;;;;;4956800;29;20042;-86
2022/10/27 04:52:30;;;;;;;5.40;3.08;;;16.90;82.00;;;;;;4953644;28;20019;-83
2022/10/27 04:54:56;;;;;;;9.13;3.22;;;16.80;82.10;;;;;;4965331;28;20035;-82
2022/10/27 04:57:22;;;;;;;5.82;3.15;;;16.80;82.10;;;;;;4960103;29;20490;-83
2022/10/27 04:59:47;;;;;;;5.47;3.38;;;16.80;82.10;;;;;;4959392;29;20395;-79
2022/10/27 05:02:13;;;;;;;6.13;2.60;;;16.80;82.30;;;;;;4974361;28;20031;-80
2022/10/27 05:04:38;;;;;;;8.27;2.95;;;16.80;82.40;;;;;;4981927;28;20114;-80
2022/10/27 05:07:04;;;;;;;6.40;2.92;;;16.80;82.30;;;;;;4979407;28;20038;-80
2022/10/27 05:09:30;;;;;;;8.15;3.15;;;16.90;82.30;;;;;;4979573;28;20026;-80
2022/10/27 05:11:55;;;;;;;6.55;2.83;;;16.80;82.30;;;;;;4972032;28;20417;-80
2022/10/27 05:14:21;;;;;;;7.60;3.08;;;16.90;82.20;;;;;;4971071;28;20023;-80
2022/10/27 05:16:46;;;;;;;7.85;3.53;;;16.90;82.30;;;;;;4980081;28;20027;-80
2022/10/27 05:19:12;;;;;;;5.20;3.03;;;16.80;82.20;;;;;;4962241;28;20064;-86
2022/10/27 05:21:38;;;;;;;7.07;2.90;;;16.80;82.20;;;;;;4979668;28;20054;-81
2022/10/27 05:24:06;;;;;;;5.90;3.03;;;16.80;82.10;;;;;;4960775;28;20114;-80
2022/10/27 05:26:32;;;;;;;6.13;2.65;;;16.80;82.20;;;;;;4959987;29;20019;-79
2022/10/27 05:28:57;;;;;;;6.95;2.90;;;16.80;82.10;;;;;;4960215;29;20063;-80
2022/10/27 05:31:23;;;;;;;6.57;3.15;;;16.80;82.30;;;;;;4960181;29;20107;-80
2022/10/27 05:33:48;;;;;;;9.30;3.58;;;16.80;82.30;;;;;;4960289;28;20422;-80
2022/10/27 05:36:14;;;;;;;8.93;3.10;;;16.80;82.00;;;;;;4962810;28;20117;-80
2022/10/27 05:38:40;;;;;;;9.85;3.30;;;16.80;82.20;;;;;;4979595;28;20027;-80
2022/10/27 05:41:06;;;;;;;9.18;2.83;;;16.80;82.10;;;;;;4944438;29;20572;-79
2022/10/27 05:43:31;;;;;;;7.15;3.10;;;16.80;82.20;;;;;;4960081;29;20408;-80
2022/10/27 05:45:57;;;;;;;7.97;3.22;;;16.80;82.20;;;;;;4960433;29;20024;-80
2022/10/27 05:48:22;;;;;;;7.13;2.88;;;16.80;82.20;;;;;;4975425;28;20126;-80
2022/10/27 05:50:52;;;;;;;7.40;3.58;;;16.80;82.20;;;;;;4979541;28;20023;-80
2022/10/27 05:53:19;;;;;;;5.20;3.42;;;16.80;82.40;;;;;;4974011;28;20442;-80
2022/10/27 05:55:44;;;;;;;6.85;3.40;;;16.80;82.30;;;;;;4958928;29;20031;-80
2022/10/27 05:58:10;;;;;;;5.90;2.97;;;16.80;82.20;;;;;;4958012;29;20035;-80
2022/10/27 06:00:37;;;;;;;7.07;3.30;;;16.80;82.30;;;;;;4969607;28;20027;-80
2022/10/27 06:03:06;;;;;;;8.43;3.72;;;16.80;82.40;;;;;;4966514;28;20030;-80
2022/10/27 06:05:34;;;;;;;6.90;2.90;;;16.80;82.30;;;;;;4944533;28;20118;-80
2022/10/27 06:07:59;;;;;;;7.55;4.10;;;16.80;82.30;;;;;;4966472;28;20038;-80
2022/10/27 06:10:28;;;;;;;6.85;3.78;;;16.90;82.30;;;;;;4976759;28;20023;-80
2022/10/27 06:13:01;;;;;;;12.40;3.50;;;16.90;82.10;;;;;;4975619;28;20023;-80
2022/10/27 06:15:27;;;;;;;6.65;3.65;;;16.90;82.20;;;;;;4958315;28;20026;-80
2022/10/27 06:17:52;;;;;;;7.40;3.30;;;17.00;81.90;;;;;;4974150;28;20030;-83
2022/10/27 06:20:18;;;;;;;8.75;3.72;;;16.90;82.00;;;;;;4976075;28;20023;-81
2022/10/27 06:22:45;;;;;;;6.07;3.28;;;17.00;82.00;;;;;;4976128;28;20026;-82
2022/10/27 06:25:11;;;;;;;5.80;3.22;;;17.00;82.00;;;;;;4972929;28;20042;-82
2022/10/27 06:27:37;;;;;;;4.80;3.53;;;17.00;81.90;;;;;;4976615;28;20031;-82
2022/10/27 06:30:03;;;;;;;8.02;3.50;;;17.10;81.80;;;;;;4974395;28;20022;-81
2022/10/27 06:32:28;;;;;;;8.18;3.88;;;17.00;81.90;;;;;;4976952;28;20117;-82
2022/10/27 06:34:54;;;;;;;5.88;3.30;;;17.00;81.90;;;;;;4977562;28;20046;-80
2022/10/27 06:37:20;;;;;;;7.68;4.00;;;17.00;81.90;;;;;;4975990;28;20097;-80
2022/10/27 06:39:46;;;;;;;6.25;3.50;;;17.00;81.90;;;;;;4960033;28;20050;-80
2022/10/27 06:42:12;;;;;;;9.10;4.15;;;17.00;81.80;;;;;;4959282;28;20065;-80
2022/10/27 06:44:37;;;;;;;11.45;3.80;;;17.10;81.80;;;;;;4977335;28;20050;-81
2022/10/27 06:47:03;;;;;;;7.15;3.47;;;17.10;81.70;;;;;;4977284;28;20458;-80
2022/10/27 06:49:31;;;;;;;8.02;3.58;;;17.10;81.70;;;;;;4976473;28;20553;-80
2022/10/27 06:51:59;;;;;;;6.05;3.90;;;17.10;81.60;;;;;;4957514;28;20027;-80
2022/10/27 06:54:24;;;;;;;9.95;3.60;;;17.10;81.70;;;;;;4977045;28;20019;-80
2022/10/27 06:56:50;;;;;;;6.30;3.38;;;17.00;81.70;;;;;;4974545;28;20045;-80
2022/10/27 06:59:15;;;;;;;8.95;4.20;;;17.00;81.90;;;;;;4974499;28;20022;-87
2022/10/27 07:01:41;;;;;;;9.82;3.90;;;17.00;82.00;;;;;;4977334;28;20384;-81
2022/10/27 07:04:07;;;;;;;13.10;4.28;;;17.00;82.10;;;;;;4976328;28;20446;-80
2022/10/27 07:06:32;;;;;;;9.00;4.45;;;17.00;82.00;;;;;;4957508;29;20059;-80
2022/10/27 07:08:58;;;;;;;8.73;4.20;;;17.00;82.10;;;;;;4956747;29;20023;-80
2022/10/27 07:11:27;;;;;;;12.45;4.13;;;17.00;82.10;;;;;;4960200;28;20039;-80
2022/10/27 07:13:53;;;;;;;10.65;4.10;;;16.90;82.20;;;;;;4956882;29;20070;-80
2022/10/27 07:16:19;;;;;;;8.85;4.47;;;16.90;82.30;;;;;;4955969;28;20500;-80
2022/10/27 07:18:44;;;;;;;9.77;4.65;;;16.90;82.20;;;;;;4955652;28;20035;-80
2022/10/27 07:21:10;;;;;;;9.07;4.20;;;16.90;82.30;;;;;;4956437;29;20114;-80
2022/10/27 07:23:35;;;;;;;10.90;4.93;;;16.90;82.20;;;;;;4956135;28;20034;-80
2022/10/27 07:26:01;;;;;;;8.52;4.45;;;16.80;82.40;;;;;;4956029;29;20434;-79
2022/10/27 07:28:27;;;;;;;6.88;4.30;;;16.80;82.40;;;;;;4954743;28;20055;-80
2022/10/27 07:30:54;;;;;;;10.32;4.13;;;16.80;82.40;;;;;;4955703;29;20093;-80
2022/10/27 07:33:20;;;;;;;9.40;4.18;;;16.80;82.70;;;;;;4939291;29;20058;-80
2022/10/27 07:35:50;;;;;;;6.65;3.53;;;16.80;82.70;;;;;;4956875;29;20037;-80
2022/10/27 07:38:17;;;;;;;12.07;4.28;;;16.80;82.70;;;;;;4957464;29;20087;-79
2022/10/27 07:40:43;;;;;;;8.15;5.15;;;16.80;82.80;;;;;;4957169;28;20560;-79
2022/10/27 07:43:09;;;;;;;6.93;3.88;;;16.80;82.80;;;;;;4958090;29;20046;-80
2022/10/27 07:45:39;;;;;;;11.88;4.47;;;16.80;82.90;;;;;;4957794;28;20456;-80
2022/10/27 07:48:06;;;;;;;8.60;4.10;;;16.80;82.90;;;;;;4957995;29;20549;-80
2022/10/27 07:50:33;;;;;;;8.70;4.22;;;16.80;83.00;;;;;;4955589;29;20447;-80
2022/10/27 07:52:59;;;;;;;14.30;4.32;;;16.80;83.00;;;;;;4970029;28;20058;-80
2022/10/27 07:55:27;;;;;;;11.88;4.90;;;16.80;83.00;;;;;;4957899;29;20046;-80
2022/10/27 07:58:08;;;;;;;12.10;4.88;;;16.90;82.90;;;;;;4957783;29;20070;-80
2022/10/27 08:00:37;;;;;;;7.78;4.13;;;16.90;83.00;;;;;;4956554;29;20027;-80
2022/10/27 08:03:05;;;;;;;10.52;4.90;;;17.00;82.70;;;;;;4940684;29;20035;-80
2022/10/27 08:05:35;;;;;;;6.00;3.83;;;17.00;82.80;;;;;;4956637;29;20675;-80
2022/10/27 08:08:05;;;;;;;;;;;17.00;82.60;;;;;;4958008;28;20035;-80
2022/10/27 08:10:32;;;;;;;5.90;3.87;;;17.20;82.70;;;;;;4983105;28;19906;-80
2022/10/27 08:12:58;;;;;;;11.20;4.38;;;17.30;82.40;;;;;;4977088;28;20352;-80
2022/10/27 08:15:25;;;;;;;12.10;4.57;;;17.30;82.20;;;;;;4976918;28;20026;-80
2022/10/27 08:17:56;;;;;;;9.68;4.57;;;17.30;82.10;;;;;;4962368;28;20035;-80
2022/10/27 08:20:23;;;;;;;12.68;5.45;;;17.30;82.20;;;;;;4957623;29;20589;-80
2022/10/27 08:22:59;;;;;;;12.40;4.40;;;17.30;82.10;;;;;;4949435;29;20038;-80
2022/10/27 08:25:25;;;;;;;11.45;4.60;;;17.30;81.90;;;;;;4957164;28;20028;-80
2022/10/27 08:27:51;;;;;;;11.13;5.10;;;17.30;81.90;;;;;;4957554;29;20037;-80
2022/10/27 08:30:18;;;;;;;6.15;4.20;;;17.30;82.20;;;;;;4956593;29;20106;-80
2022/10/27 08:32:43;;;;;;;10.88;4.78;;;17.30;82.00;;;;;;4957533;29;20115;-80
2022/10/27 08:35:09;;;;;;;7.88;4.35;;;17.40;82.10;;;;;;4957376;28;20063;-80
2022/10/27 08:37:35;;;;;;;7.55;4.10;;;17.40;82.10;;;;;;4957469;29;20034;-80
2022/10/27 08:40:00;;;;;;;16.50;4.93;;;17.50;82.20;;;;;;4957087;28;20919;-80
2022/10/27 08:42:44;;;;;;;12.80;5.57;;;17.50;82.20;;;;;;4957438;29;20027;-79
2022/10/27 08:45:16;;;;;;;9.10;4.57;;;17.60;82.20;;;;;;4957326;29;20084;-80
2022/10/27 08:47:43;;;;;;;12.60;4.90;;;17.70;82.00;;;;;;4957133;28;20450;-80
2022/10/27 08:50:24;;;;;;;8.98;4.47;;;17.70;81.90;;;;;;4957044;28;20149;-80
2022/10/27 08:52:53;;;;;;;11.30;4.28;;;17.80;81.90;;;;;;4974041;28;20482;-80
2022/10/27 08:55:24;;;;;;;14.30;5.32;;;17.80;81.70;;;;;;4974678;28;20106;-80
2022/10/27 08:58:14;;;;;;;15.18;4.70;;;17.90;81.80;;;;;;4957257;29;20027;-80
2022/10/27 09:00:47;;;;;;;;;;;18.00;81.60;;;;;;4957665;29;20027;-80
2022/10/27 09:03:35;;;;;;;11.05;4.63;;;18.00;81.60;;;;;;4957042;28;19917;-79
2022/10/27 09:06:15;;;;;;;11.15;4.75;;;18.20;81.60;;;;;;4957036;29;20077;-80
2022/10/27 09:09:10;;;;;;;9.80;4.88;;;18.30;81.50;;;;;;4957231;29;20031;-80
2022/10/27 09:11:53;;;;;;;10.95;4.03;;;18.40;81.50;;;;;;4937388;28;20046;-80
2022/10/27 09:14:50;;;;;;;9.25;4.65;;;18.70;81.40;;;;;;4957211;29;20027;-80
2022/10/27 09:17:43;;;;;;;13.07;4.80;;;18.90;80.80;;;;;;4957206;29;20603;-80
2022/10/27 09:20:43;;;;;;;10.15;3.90;;;19.10;80.70;;;;;;4957066;29;20037;-80
2022/10/27 09:23:14;;;;;;;;;;;19.00;80.30;;;;;;4957414;28;20540;-80
2022/10/27 09:25:41;;;;;;;13.23;4.55;;;19.10;80.50;;;;;;4939553;28;20062;-80
2022/10/27 09:28:17;;;;;;;11.23;4.95;;;19.20;80.30;;;;;;4940040;29;20031;-80
2022/10/27 09:30:44;;;;;;;8.75;4.00;;;19.20;80.10;;;;;;4955569;28;20082;-81
2022/10/27 09:33:18;;;;;;;12.95;4.40;;;19.30;80.20;;;;;;4956954;29;20031;-80
2022/10/27 09:35:43;;;;;;;7.63;4.13;;;19.30;80.40;;;;;;4954645;29;20036;-80
2022/10/27 09:38:22;;;;;;;13.18;4.85;;;19.30;80.20;;;;;;4939855;29;20058;-80
2022/10/27 09:40:48;;;;;;;11.13;4.70;;;19.30;80.00;;;;;;4941145;28;20119;-80
2022/10/27 09:43:14;;;;;;;8.52;3.60;;;19.40;80.20;;;;;;4960415;29;20593;-80
2022/10/27 09:45:42;;;;;;;8.70;3.35;;;19.50;80.30;;;;;;4960224;29;20035;-80
2022/10/27 09:48:18;;;;;;;13.93;4.82;;;19.50;79.90;;;;;;4959081;29;20430;-81
2022/10/27 09:50:51;;;;;;;15.02;4.72;;;19.60;80.00;;;;;;4959872;28;20023;-80
2022/10/27 09:53:46;;;;;;;8.68;4.35;;;19.70;79.90;;;;;;4960207;29;20028;-80
2022/10/27 09:56:28;;;;;;;11.45;4.18;;;19.70;80.00;;;;;;4944839;28;20203;-80
2022/10/27 09:58:59;;;;;;;8.18;4.03;;;19.70;79.90;;;;;;4958389;29;20111;-80
2022/10/27 10:01:27;;;;;;;11.80;4.13;;;19.70;80.00;;;;;;4960014;29;20035;-80
2022/10/27 10:04:04;;;;;;;9.75;3.63;;;19.70;79.60;;;;;;4959692;28;20035;-80
2022/10/27 10:06:38;;;;;;;9.07;3.97;;;19.80;79.80;;;;;;4959656;28;20481;-80
2022/10/27 10:09:24;;;;;;;11.90;4.72;;;19.80;79.80;;;;;;4958739;29;20031;-83
2022/10/27 10:11:51;;;;;;;13.82;5.22;;;19.80;79.70;;;;;;4972852;28;20042;-80
2022/10/27 10:14:24;;;;;;;11.95;4.43;;;19.80;79.70;;;;;;4960047;29;20065;-80
2022/10/27 10:16:51;;;;;;;12.63;4.30;;;19.80;79.90;;;;;;4968310;28;20033;-80
2022/10/27 10:19:21;;;;;;;9.52;4.07;;;19.80;79.90;;;;;;4978162;28;20028;-78
2022/10/27 10:22:00;;;;;;;15.25;4.00;;;19.80;79.70;;;;;;4959595;29;20043;-79
2022/10/27 10:24:33;;;;;;;12.43;4.05;;;19.90;79.50;;;;;;4959407;29;20046;-79
2022/10/27 10:27:00;;;;;;;14.80;4.78;;;20.00;79.20;;;;;;4942246;28;20117;-79
2022/10/27 10:29:32;;;;;;;16.77;4.50;;;20.00;79.30;;;;;;4978517;28;20081;-79
2022/10/27 10:32:30;;;;;;;11.75;4.00;;;20.10;79.20;;;;;;4961092;28;20050;-79
2022/10/27 10:34:56;;;;;;;12.82;4.95;;;20.10;79.40;;;;;;4950252;28;20055;-79
2022/10/27 10:37:38;;;;;;;13.85;4.78;;;20.20;79.20;;;;;;4959365;29;20526;-79
2022/10/27 10:40:13;;;;;;;14.60;5.50;;;20.20;79.20;;;;;;4959446;29;20027;-79
2022/10/27 10:42:43;;;;;;;9.85;4.03;;;20.30;79.00;;;;;;4959048;28;20027;-79
2022/10/27 10:45:20;;;;;;;18.02;4.75;;;20.30;79.00;;;;;;4978388;28;20481;-80
2022/10/27 10:47:48;;;;;;;12.23;4.20;;;20.40;78.80;;;;;;4983269;28;20026;-82
2022/10/27 10:50:15;;;;;;;15.52;5.25;;;20.60;78.40;;;;;;4995409;28;20033;-78
2022/10/27 10:52:47;;;;;;;15.55;4.45;;;20.80;78.00;;;;;;4971167;28;20031;-78
2022/10/27 10:55:23;;;;;;;12.98;4.70;;;20.80;77.90;;;;;;4959023;29;20031;-79
2022/10/27 10:57:51;;;;;;;12.60;4.00;;;20.90;77.40;;;;;;4958707;28;20042;-80
2022/10/27 11:00:19;;;;;;;14.65;4.57;;;21.00;76.80;;;;;;4958964;29;20038;-80
2022/10/27 11:03:14;;;;;;;12.52;4.15;;;21.10;76.80;;;;;;4959006;29;20027;-88
2022/10/27 11:05:40;;;;;;;11.48;3.75;;;21.10;76.60;;;;;;4957668;28;20055;-81
2022/10/27 11:08:26;;;;;;;14.40;4.30;;;21.20;76.40;;;;;;4959187;29;20549;-82
2022/10/27 11:10:54;;;;;;;11.02;4.50;;;21.20;76.60;;;;;;4947912;28;20110;-80
2022/10/27 11:13:45;;;;;;;14.02;4.18;;;21.30;76.30;;;;;;4960923;28;20031;-81
2022/10/27 11:16:12;;;;;;;9.18;4.45;;;21.30;75.70;;;;;;4941537;29;20490;-80
2022/10/27 11:18:48;;;;;;;15.13;5.28;;;21.30;75.60;;;;;;4958575;29;20501;-81
2022/10/27 11:21:17;;;;;;;18.00;5.53;;;21.40;75.50;;;;;;4958475;29;20086;-81
2022/10/27 11:23:53;;;;;;;9.50;4.45;;;21.50;75.60;;;;;;4958540;29;20035;-79
2022/10/27 11:26:23;;;;;;;13.13;4.57;;;21.70;75.80;;;;;;4958120;28;20425;-78
2022/10/27 11:28:52;;;;;;;14.68;3.75;;;21.80;75.00;;;;;;4958487;29;20114;-79
2022/10/27 11:31:36;;;;;;;14.10;4.03;;;22.10;74.70;;;;;;4958179;29;20050;-78
2022/10/27 11:34:17;;;;;;;10.68;3.50;;;22.20;73.60;;;;;;4958448;29;20027;-82
2022/10/27 11:36:53;;;;;;;9.23;3.58;;;22.20;73.80;;;;;;4958113;28;20046;-78
2022/10/27 11:39:25;;;;;;;14.20;4.32;;;22.20;73.90;;;;;;4957992;28;20058;-82
2022/10/27 11:42:03;;;;;;;9.80;3.67;;;22.00;73.90;;;;;;4958226;29;20038;-79
2022/10/27 11:44:37;;;;;;;15.80;4.43;;;21.90;73.80;;;;;;4958136;29;20027;-77
2022/10/27 11:47:16;;;;;;;18.35;4.32;;;21.80;73.70;;;;;;4957869;28;20062;-78
2022/10/27 11:49:49;;;;;;;10.70;3.97;;;21.80;74.40;;;;;;4958113;29;20026;-78
2022/10/27 11:52:28;;;;;;;19.65;4.50;;;21.90;74.70;;;;;;4958429;28;20027;-78
2022/10/27 11:54:55;;;;;;;12.65;3.78;;;21.90;74.90;;;;;;4957931;29;20019;-78
2022/10/27 11:57:39;;;;;;;15.55;3.97;;;22.00;74.70;;;;;;4957951;29;20041;-78
2022/10/27 12:00:22;;;;;;;10.55;2.92;;;22.10;74.40;;;;;;4957571;28;20031;-78
2022/10/27 12:03:21;;;;;;;12.23;3.95;;;22.10;73.70;;;;;;4957763;28;20035;-78
2022/10/27 12:05:52;;;;;;;9.65;3.97;;;22.10;73.70;;;;;;4970261;28;20027;-78
2022/10/27 12:08:36;;;;;;;14.38;3.70;;;22.10;73.30;;;;;;4976154;28;20130;-78
2022/10/27 12:11:09;;;;;;;13.55;3.75;;;22.10;73.10;;;;;;4976827;28;20031;-78
2022/10/27 12:14:12;;;;;;;13.32;4.03;;;22.20;73.30;;;;;;4976699;28;20398;-78
2022/10/27 12:16:43;;;;;;;13.23;3.78;;;22.20;73.30;;;;;;4970711;28;20071;-77
2022/10/27 12:19:26;;;;;;;14.27;3.80;;;22.20;73.70;;;;;;4973913;28;20489;-78
2022/10/27 12:22:02;;;;;;;11.63;3.45;;;22.20;73.60;;;;;;4968446;28;20070;-78
2022/10/27 12:24:36;;;;;;;8.55;3.20;;;22.20;73.70;;;;;;4983332;28;20035;-77
2022/10/27 12:27:14;;;;;;;11.32;3.05;;;22.30;73.20;;;;;;4974410;28;20118;-77
2022/10/27 12:29:45;;;;;;;17.30;4.00;;;22.30;72.40;;;;;;4974170;28;20038;-77
2022/10/27 12:32:38;;;;;;;11.68;3.35;;;22.30;72.10;;;;;;4971044;28;20521;-81
2022/10/27 12:35:28;;;;;;;10.68;3.40;;;22.30;72.20;;;;;;4954591;28;20077;-79
2022/10/27 12:38:01;;;;;;;10.45;3.58;;;22.20;72.10;;;;;;4974407;28;20026;-80
2022/10/27 12:40:42;;;;;;;10.25;3.50;;;22.20;72.20;;;;;;4955505;28;20037;-79
2022/10/27 12:43:36;;;;;;;13.00;3.28;;;22.30;72.00;;;;;;4975249;28;20078;-80
2022/10/27 12:46:22;;;;;;;11.65;3.42;;;22.30;72.50;;;;;;4974741;28;20034;-80
2022/10/27 12:49:30;;;;;;;11.73;3.30;;;22.40;71.30;;;;;;4973944;28;20027;-75
2022/10/27 12:52:14;;;;;;;10.70;3.13;;;22.60;71.40;;;;;;4956589;28;20031;-79
2022/10/27 12:54:58;;;;;;;8.75;3.33;;;22.60;71.60;;;;;;4971041;28;20038;-78
2022/10/27 12:57:42;;;;;;;9.60;4.20;;;22.60;71.50;;;;;;4971955;28;20093;-76
2022/10/27 13:00:22;;;;;;;14.20;3.80;;;22.50;70.10;;;;;;4975218;28;20058;-77
2022/10/27 13:03:18;;;;;;;9.60;3.70;;;22.50;70.90;;;;;;4972787;28;20106;-77
2022/10/27 13:05:59;;;;;;;12.63;3.40;;;22.30;71.00;;;;;;4973819;28;20031;-80
2022/10/27 13:08:51;;;;;;;12.05;3.40;;;22.30;71.10;;;;;;4974730;28;20023;-79
2022/10/27 13:11:52;;;;;;;12.70;4.13;;;22.30;71.20;;;;;;4973479;28;20073;-79
2022/10/27 13:14:44;;;;;;;14.95;3.60;;;22.30;71.20;;;;;;4971707;28;20022;-79
2022/10/27 13:17:16;;;;;;;12.45;3.95;;;22.30;71.10;;;;;;4973366;28;20114;-79
2022/10/27 13:20:09;;;;;;;8.13;3.17;;;22.30;71.30;;;;;;4978768;28;20023;-79
2022/10/27 13:22:49;;;;;;;9.82;3.78;;;22.30;70.50;;;;;;4959785;28;20054;-79
2022/10/27 13:25:23;;;;;;;15.63;3.85;;;22.30;70.40;;;;;;4970522;28;20019;-79
2022/10/27 13:28:22;;;;;;;13.68;3.90;;;22.30;70.90;;;;;;4949784;28;20094;-79
2022/10/27 13:30:58;;;;;;;8.27;3.85;;;22.40;71.20;;;;;;4975074;28;20043;-79
2022/10/27 13:33:35;;;;;;;10.57;4.15;;;22.40;71.00;;;;;;4977224;28;20142;-79
2022/10/27 13:36:21;;;;;;;6.50;3.75;;;22.40;71.00;;;;;;4977315;28;20023;-85
2022/10/27 13:38:48;;;;;;;11.95;3.35;;;22.40;71.10;;;;;;4963131;28;20049;-82
2022/10/27 13:41:56;;;;;;;11.02;3.55;;;22.40;70.40;;;;;;4962348;28;20049;-80
2022/10/27 13:44:34;;;;;;;11.43;4.15;;;22.40;70.80;;;;;;4972666;28;20042;-79
2022/10/27 13:47:03;;;;;;;13.65;4.32;;;22.40;70.50;;;;;;4977210;28;20429;-79
2022/10/27 13:49:41;;;;;;;7.47;3.63;;;22.50;70.70;;;;;;4964688;28;20480;-80
2022/10/27 13:52:16;;;;;;;11.73;4.13;;;22.60;70.80;;;;;;4973786;28;20023;-79
2022/10/27 13:55:01;;;;;;;9.98;4.25;;;22.70;70.00;;;;;;4961525;28;20031;-79
2022/10/27 13:57:44;;;;;;;8.55;3.35;;;22.70;70.30;;;;;;4980401;28;20050;-80
2022/10/27 14:00:13;;;;;;;9.32;3.88;;;22.70;70.40;;;;;;4961026;28;20045;-80
2022/10/27 14:02:47;;;;;;;11.43;3.78;;;22.70;69.80;;;;;;4960307;28;20041;-80
2022/10/27 14:05:28;;;;;;;14.18;4.07;;;22.60;69.90;;;;;;4977809;28;20039;-80
2022/10/27 14:07:53;;;;;;;10.30;4.38;;;22.50;69.80;;;;;;4993187;28;20026;-80
2022/10/27 14:10:20;;;;;;;10.45;3.65;;;22.40;69.90;;;;;;4985196;28;20058;-79
2022/10/27 14:12:46;;;;;;;8.25;3.85;;;22.40;70.30;;;;;;4981000;28;20759;-80
2022/10/27 14:15:32;;;;;;;8.52;3.60;;;22.30;70.10;;;;;;4985939;28;20026;-80
2022/10/27 14:17:58;;;;;;;15.50;3.95;;;22.30;70.60;;;;;;4958459;29;20099;-80
2022/10/27 14:20:33;;;;;;;19.45;4.28;;;22.30;70.20;;;;;;4972560;28;20469;-79
2022/10/27 14:23:09;;;;;;;8.85;3.55;;;22.30;70.60;;;;;;4974999;28;20028;-80
2022/10/27 14:25:35;;;;;;;9.82;3.55;;;22.30;70.30;;;;;;4982068;28;20099;-79
2022/10/27 14:28:17;;;;;;;11.93;4.20;;;22.30;70.50;;;;;;4967298;28;20105;-80
2022/10/27 14:30:44;;;;;;;14.07;3.97;;;22.30;70.30;;;;;;4974490;28;20026;-79
2022/10/27 14:33:19;;;;;;;11.90;3.13;;;22.30;70.50;;;;;;4981242;28;20022;-80
2022/10/27 14:35:45;;;;;;;13.02;4.45;;;22.30;70.70;;;;;;4982215;28;20030;-80
2022/10/27 14:38:20;;;;;;;12.50;3.28;;;22.30;70.90;;;;;;4980300;28;20029;-81
2022/10/27 14:40:47;;;;;;;11.93;4.65;;;22.30;70.80;;;;;;4974835;28;20031;-80
2022/10/27 14:43:22;;;;;;;8.88;3.67;;;22.30;71.10;;;;;;4941980;29;20035;-82
2022/10/27 14:45:59;;;;;;;9.25;3.47;;;22.30;71.10;;;;;;4956802;28;20038;-80
2022/10/27 14:48:32;;;;;;;10.25;3.85;;;22.30;70.90;;;;;;4977231;28;20030;-81
2022/10/27 14:50:59;;;;;;;9.82;3.80;;;22.30;71.10;;;;;;4974963;28;20023;-80
2022/10/27 14:53:33;;;;;;;11.43;4.65;;;22.30;71.20;;;;;;4974055;28;20031;-80
2022/10/27 14:56:23;;;;;;;7.38;3.65;;;22.30;71.20;;;;;;4974528;28;20397;-80
2022/10/27 14:58:52;;;;;;;15.50;3.97;;;22.30;71.40;;;;;;4970761;28;20473;-80
2022/10/27 15:01:26;;;;;;;9.77;3.95;;;22.30;71.40;;;;;;4979023;28;20085;-80
2022/10/27 15:03:52;;;;;;;8.30;3.33;;;22.30;71.30;;;;;;4977522;28;20062;-80
2022/10/27 15:06:19;;;;;;;6.18;2.92;;;22.30;71.20;;;;;;4966891;28;20031;-80
2022/10/27 15:08:46;;;;;;;13.23;4.10;;;22.30;71.50;;;;;;4958565;29;20026;-80
2022/10/27 15:11:18;;;;;;;14.38;4.18;;;22.40;71.60;;;;;;4975027;28;20030;-80
2022/10/27 15:13:44;;;;;;;13.10;3.92;;;22.50;71.30;;;;;;4943026;29;20035;-81
2022/10/27 15:16:17;;;;;;;12.80;4.00;;;22.50;71.40;;;;;;4974404;28;20166;-80
2022/10/27 15:18:44;;;;;;;8.68;3.40;;;22.50;71.00;;;;;;4974196;28;20062;-80
2022/10/27 15:21:24;;;;;;;10.43;3.78;;;22.50;71.00;;;;;;4970061;28;20023;-80
2022/10/27 15:23:59;;;;;;;9.07;3.22;;;22.50;71.10;;;;;;4958611;28;20042;-80
2022/10/27 15:26:26;;;;;;;13.32;3.53;;;22.40;71.30;;;;;;4959055;29;20506;-79
2022/10/27 15:28:53;;;;;;;8.93;3.63;;;22.40;71.40;;;;;;4958937;29;20118;-80
2022/10/27 15:31:20;;;;;;;10.60;4.53;;;22.30;71.50;;;;;;4958485;28;20063;-80
2022/10/27 15:33:47;;;;;;;9.98;3.58;;;22.30;71.60;;;;;;4958678;29;20062;-80
2022/10/27 15:36:16;;;;;;;12.10;4.75;;;22.30;71.70;;;;;;4973281;28;20027;-79
2022/10/27 15:38:43;;;;;;;9.95;3.90;;;22.30;71.80;;;;;;4975090;28;20030;-79
2022/10/27 15:41:15;;;;;;;7.95;3.78;;;22.20;72.00;;;;;;4974994;28;20023;-79
2022/10/27 15:43:42;;;;;;;11.68;4.00;;;22.20;72.30;;;;;;4976427;28;20054;-80
2022/10/27 15:46:26;;;;;;;11.93;4.45;;;22.20;72.40;;;;;;4974917;28;20489;-80
2022/10/27 15:49:21;;;;;;;9.90;4.07;;;22.10;72.50;;;;;;4974386;28;20023;-80
2022/10/27 15:51:56;;;;;;;11.00;4.10;;;22.00;72.80;;;;;;4975886;28;20055;-80
2022/10/27 15:54:33;;;;;;;11.25;4.43;;;22.00;73.00;;;;;;4978039;28;20028;-80
2022/10/27 15:57:00;;;;;;;12.57;4.35;;;22.00;73.20;;;;;;4958275;29;20038;-80
2022/10/27 15:59:28;;;;;;;15.10;4.95;;;22.00;73.50;;;;;;4957943;29;20553;-80
2022/10/27 16:02:18;;;;;;;8.35;3.75;;;21.90;73.70;;;;;;4958831;28;20027;-80
2022/10/27 16:04:44;;;;;;;11.60;4.38;;;21.80;74.00;;;;;;4937630;29;20054;-80
2022/10/27 16:07:12;;;;;;;10.90;4.38;;;21.80;74.20;;;;;;4966754;28;20035;-80
2022/10/27 16:09:45;;;;;;;8.38;4.82;;;21.80;74.40;;;;;;4976785;28;20019;-80
2022/10/27 16:12:20;;;;;;;15.65;4.65;;;21.80;74.40;;;;;;4959390;28;20043;-80
2022/10/27 16:14:54;;;;;;;11.93;5.28;;;21.80;74.50;;;;;;4965876;28;20031;-80
2022/10/27 16:17:23;;;;;;;14.80;4.22;;;21.70;74.40;;;;;;4959059;28;20035;-80
2022/10/27 16:19:49;;;;;;;10.05;4.25;;;21.70;74.40;;;;;;4990559;28;20030;-80
2022/10/27 16:22:17;;;;;;;13.90;4.40;;;21.70;74.40;;;;;;4976334;28;20110;-80
2022/10/27 16:24:43;;;;;;;13.98;3.70;;;21.70;74.50;;;;;;4957341;29;20027;-80
2022/10/27 16:27:24;;;;;;;11.77;3.70;;;21.70;74.50;;;;;;4966130;28;20503;-80
2022/10/27 16:29:58;;;;;;;12.65;4.05;;;21.70;74.50;;;;;;4957207;28;20102;-80
2022/10/27 16:32:26;;;;;;;12.90;4.15;;;21.60;74.40;;;;;;4970896;28;20055;-80
2022/10/27 16:34:53;;;;;;;8.43;3.50;;;21.60;74.30;;;;;;4966674;28;20049;-80
2022/10/27 16:37:25;;;;;;;7.25;3.00;;;21.60;74.30;;;;;;4967459;28;20145;-82
2022/10/27 16:39:51;;;;;;;11.18;3.85;;;21.50;74.30;;;;;;4970468;28;20019;-83
2022/10/27 16:42:16;;;;;;;10.73;3.88;;;21.50;74.20;;;;;;4969253;28;20094;-87
2022/10/27 16:44:42;;;;;;;9.27;3.92;;;21.50;74.10;;;;;;4974679;28;20105;-87
2022/10/27 16:47:16;;;;;;;12.07;4.07;;;21.40;74.20;;;;;;4963470;28;20045;-87
2022/10/27 16:49:42;;;;;;;8.95;3.90;;;21.40;74.40;;;;;;4947961;28;20079;-89
2022/10/27 16:52:08;;;;;;;12.07;4.47;;;21.30;74.50;;;;;;4961660;28;20035;-87
2022/10/27 16:54:35;;;;;;;15.88;3.70;;;21.30;74.60;;;;;;4961096;28;20031;-84
2022/10/27 16:57:02;;;;;;;11.68;3.88;;;21.30;74.80;;;;;;4968439;28;20030;-84
2022/10/27 16:59:27;;;;;;;9.45;3.90;;;21.30;75.10;;;;;;4976472;28;20105;-83
2022/10/27 17:01:53;;;;;;;10.45;3.55;;;21.20;75.40;;;;;;4959747;28;20113;-85
2022/10/27 17:04:19;;;;;;;16.23;4.03;;;21.10;75.40;;;;;;4954199;28;20497;-86
2022/10/27 17:06:47;;;;;;;8.52;3.95;;;21.10;75.50;;;;;;4979759;28;20131;-86
2022/10/27 17:09:13;;;;;;;11.02;4.00;;;21.10;75.70;;;;;;4979936;28;20023;-85
2022/10/27 17:11:57;;;;;;;12.20;4.07;;;21.00;75.90;;;;;;4979833;28;20033;-88
2022/10/27 17:14:22;;;;;;;12.35;4.25;;;21.00;76.10;;;;;;4979844;28;20090;-87
2022/10/27 17:16:49;;;;;;;9.13;4.47;;;20.90;76.20;;;;;;4980026;28;20461;-86
2022/10/27 17:19:14;;;;;;;16.77;4.35;;;20.90;76.20;;;;;;4977287;28;20069;-86
2022/10/27 17:21:40;;;;;;;15.70;4.13;;;20.80;76.30;;;;;;4980131;28;20030;-88
2022/10/27 17:24:08;;;;;;;10.38;4.82;;;20.80;76.10;;;;;;4963438;28;20509;-84
2022/10/27 17:26:33;;;;;;;13.15;4.38;;;20.80;76.40;;;;;;4961990;28;20050;-89
2022/10/27 17:28:59;;;;;;;17.17;4.28;;;20.70;76.60;;;;;;4978333;28;20054;-85
2022/10/27 17:31:26;;;;;;;10.48;4.75;;;20.70;76.60;;;;;;4963947;28;20055;-93
2022/10/27 17:34:00;;;;;;;12.63;4.28;;;20.70;76.70;;;;;;4974284;28;20382;-77
2022/10/27 17:36:26;;;;;;;11.52;4.40;;;20.70;76.70;;;;;;4973488;28;20026;-78
2022/10/27 17:38:52;;;;;;;11.60;4.25;;;20.60;76.80;;;;;;4960163;28;20702;-78